sensor_id;sensor_type;location;lat;lon;timestamp;P1;durP1;ratioP1;P2;durP2;ratioP2
82292;SDS011;71892;14.836;105.234;2024-01-30T00:00:02;111.70;;;63.33;;
82292;SDS011;71892;14.836;105.234;2024-01-30T00:02:30;92.57;;;54.78;;
82292;SDS011;71892;14.836;105.234;2024-01-30T00:04:57;91.45;;;57.35;;
82292;SDS011;71892;14.836;105.234;2024-01-30T00:07:23;74.18;;;43.10;;
82292;SDS011;71892;14.836;105.234;2024-01-30T00:09:50;83.03;;;50.85;;
82292;SDS011;71892;14.836;105.234;2024-01-30T00:12:16;81.88;;;49.08;;
82292;SDS011;71892;14.836;105.234;2024-01-30T00:14:42;91.00;;;44.80;;
82292;SDS011;71892;14.836;105.234;2024-01-30T00:17:09;76.90;;;47.08;;
82292;SDS011;71892;14.836;105.234;2024-01-30T00:19:35;80.75;;;44.85;;
82292;SDS011;71892;14.836;105.234;2024-01-30T00:22:01;65.70;;;39.60;;
82292;SDS011;71892;14.836;105.234;2024-01-30T00:24:28;66.32;;;40.88;;
82292;SDS011;71892;14.836;105.234;2024-01-30T00:26:54;80.65;;;42.83;;
82292;SDS011;71892;14.836;105.234;2024-01-30T00:29:21;84.90;;;42.80;;
82292;SDS011;71892;14.836;105.234;2024-01-30T00:31:48;74.40;;;37.17;;
82292;SDS011;71892;14.836;105.234;2024-01-30T00:34:14;64.03;;;32.95;;
82292;SDS011;71892;14.836;105.234;2024-01-30T00:36:41;86.70;;;41.53;;
82292;SDS011;71892;14.836;105.234;2024-01-30T00:39:07;85.07;;;35.20;;
82292;SDS011;71892;14.836;105.234;2024-01-30T00:41:35;74.47;;;34.85;;
82292;SDS011;71892;14.836;105.234;2024-01-30T00:44:00;59.42;;;32.30;;
82292;SDS011;71892;14.836;105.234;2024-01-30T00:46:27;56.83;;;31.30;;
82292;SDS011;71892;14.836;105.234;2024-01-30T00:48:53;64.88;;;29.80;;
82292;SDS011;71892;14.836;105.234;2024-01-30T00:51:19;64.22;;;32.75;;
82292;SDS011;71892;14.836;105.234;2024-01-30T00:53:45;56.00;;;28.83;;
82292;SDS011;71892;14.836;105.234;2024-01-30T00:56:12;48.75;;;26.40;;
82292;SDS011;71892;14.836;105.234;2024-01-30T00:58:39;42.17;;;25.48;;
82292;SDS011;71892;14.836;105.234;2024-01-30T01:01:05;42.75;;;25.13;;
82292;SDS011;71892;14.836;105.234;2024-01-30T01:03:32;42.58;;;27.83;;
82292;SDS011;71892;14.836;105.234;2024-01-30T01:05:59;40.70;;;25.63;;
82292;SDS011;71892;14.836;105.234;2024-01-30T01:08:25;51.55;;;26.77;;
82292;SDS011;71892;14.836;105.234;2024-01-30T01:10:52;46.05;;;26.15;;
82292;SDS011;71892;14.836;105.234;2024-01-30T01:13:18;38.80;;;24.08;;
82292;SDS011;71892;14.836;105.234;2024-01-30T01:15:44;41.08;;;25.50;;
82292;SDS011;71892;14.836;105.234;2024-01-30T01:18:10;38.78;;;21.70;;
82292;SDS011;71892;14.836;105.234;2024-01-30T01:20:37;36.75;;;22.75;;
82292;SDS011;71892;14.836;105.234;2024-01-30T01:23:03;33.33;;;19.95;;
82292;SDS011;71892;14.836;105.234;2024-01-30T01:25:30;37.30;;;18.92;;
82292;SDS011;71892;14.836;105.234;2024-01-30T01:27:56;35.30;;;20.08;;
82292;SDS011;71892;14.836;105.234;2024-01-30T01:30:22;32.00;;;20.88;;
82292;SDS011;71892;14.836;105.234;2024-01-30T01:32:49;34.88;;;20.00;;
82292;SDS011;71892;14.836;105.234;2024-01-30T01:35:22;39.65;;;20.10;;
82292;SDS011;71892;14.836;105.234;2024-01-30T01:37:53;33.33;;;19.88;;
82292;SDS011;71892;14.836;105.234;2024-01-30T01:40:25;35.45;;;20.10;;
82292;SDS011;71892;14.836;105.234;2024-01-30T01:42:53;39.13;;;21.45;;
82292;SDS011;71892;14.836;105.234;2024-01-30T01:45:21;41.90;;;27.70;;
82292;SDS011;71892;14.836;105.234;2024-01-30T01:47:50;43.85;;;27.73;;
82292;SDS011;71892;14.836;105.234;2024-01-30T01:50:17;49.75;;;29.35;;
82292;SDS011;71892;14.836;105.234;2024-01-30T01:52:46;54.38;;;29.42;;
82292;SDS011;71892;14.836;105.234;2024-01-30T01:55:14;36.08;;;20.60;;
82292;SDS011;71892;14.836;105.234;2024-01-30T01:57:42;35.10;;;20.20;;
82292;SDS011;71892;14.836;105.234;2024-01-30T02:00:09;28.98;;;19.27;;
82292;SDS011;71892;14.836;105.234;2024-01-30T02:02:36;29.23;;;19.80;;
82292;SDS011;71892;14.836;105.234;2024-01-30T02:05:03;31.15;;;17.45;;
82292;SDS011;71892;14.836;105.234;2024-01-30T02:07:29;34.08;;;19.30;;
82292;SDS011;71892;14.836;105.234;2024-01-30T02:09:56;31.90;;;18.13;;
82292;SDS011;71892;14.836;105.234;2024-01-30T02:12:22;33.50;;;17.98;;
82292;SDS011;71892;14.836;105.234;2024-01-30T02:14:48;26.38;;;17.10;;
82292;SDS011;71892;14.836;105.234;2024-01-30T02:17:15;25.73;;;15.05;;
82292;SDS011;71892;14.836;105.234;2024-01-30T02:19:42;26.15;;;16.70;;
82292;SDS011;71892;14.836;105.234;2024-01-30T02:22:08;26.10;;;14.05;;
82292;SDS011;71892;14.836;105.234;2024-01-30T02:24:35;30.42;;;15.15;;
82292;SDS011;71892;14.836;105.234;2024-01-30T02:27:01;25.40;;;13.98;;
82292;SDS011;71892;14.836;105.234;2024-01-30T02:29:27;23.08;;;14.43;;
82292;SDS011;71892;14.836;105.234;2024-01-30T02:31:54;23.25;;;13.65;;
82292;SDS011;71892;14.836;105.234;2024-01-30T02:34:20;25.33;;;12.85;;
82292;SDS011;71892;14.836;105.234;2024-01-30T02:36:46;23.58;;;14.52;;
82292;SDS011;71892;14.836;105.234;2024-01-30T02:39:12;20.25;;;12.57;;
82292;SDS011;71892;14.836;105.234;2024-01-30T02:41:39;24.35;;;12.85;;
82292;SDS011;71892;14.836;105.234;2024-01-30T02:44:05;25.58;;;14.23;;
82292;SDS011;71892;14.836;105.234;2024-01-30T02:46:31;32.78;;;14.35;;
82292;SDS011;71892;14.836;105.234;2024-01-30T02:48:58;20.65;;;13.02;;
82292;SDS011;71892;14.836;105.234;2024-01-30T02:51:24;20.88;;;10.70;;
82292;SDS011;71892;14.836;105.234;2024-01-30T02:53:50;20.50;;;9.68;;
82292;SDS011;71892;14.836;105.234;2024-01-30T02:56:17;20.63;;;9.63;;
82292;SDS011;71892;14.836;105.234;2024-01-30T02:58:44;17.90;;;10.02;;
82292;SDS011;71892;14.836;105.234;2024-01-30T03:01:10;16.30;;;8.68;;
82292;SDS011;71892;14.836;105.234;2024-01-30T03:03:36;17.45;;;9.57;;
82292;SDS011;71892;14.836;105.234;2024-01-30T03:06:03;20.77;;;9.52;;
82292;SDS011;71892;14.836;105.234;2024-01-30T03:08:29;19.15;;;9.10;;
82292;SDS011;71892;14.836;105.234;2024-01-30T03:10:55;14.77;;;8.35;;
82292;SDS011;71892;14.836;105.234;2024-01-30T03:13:21;14.10;;;8.65;;
82292;SDS011;71892;14.836;105.234;2024-01-30T03:15:50;22.25;;;8.45;;
82292;SDS011;71892;14.836;105.234;2024-01-30T03:18:16;18.45;;;8.52;;
82292;SDS011;71892;14.836;105.234;2024-01-30T03:20:43;14.88;;;8.55;;
82292;SDS011;71892;14.836;105.234;2024-01-30T03:23:10;16.45;;;8.68;;
82292;SDS011;71892;14.836;105.234;2024-01-30T03:25:36;14.02;;;8.27;;
82292;SDS011;71892;14.836;105.234;2024-01-30T03:28:02;20.77;;;8.48;;
82292;SDS011;71892;14.836;105.234;2024-01-30T03:30:29;14.65;;;8.80;;
82292;SDS011;71892;14.836;105.234;2024-01-30T03:32:55;13.80;;;8.10;;
82292;SDS011;71892;14.836;105.234;2024-01-30T03:35:21;14.07;;;9.43;;
82292;SDS011;71892;14.836;105.234;2024-01-30T03:37:48;18.02;;;7.78;;
82292;SDS011;71892;14.836;105.234;2024-01-30T03:40:14;15.45;;;8.05;;
82292;SDS011;71892;14.836;105.234;2024-01-30T03:42:40;12.82;;;8.50;;
82292;SDS011;71892;14.836;105.234;2024-01-30T03:45:07;63.97;;;10.68;;
82292;SDS011;71892;14.836;105.234;2024-01-30T03:47:34;15.20;;;7.60;;
82292;SDS011;71892;14.836;105.234;2024-01-30T03:50:00;12.25;;;7.47;;
82292;SDS011;71892;14.836;105.234;2024-01-30T03:52:26;11.50;;;7.38;;
82292;SDS011;71892;14.836;105.234;2024-01-30T03:54:53;12.32;;;6.40;;
82292;SDS011;71892;14.836;105.234;2024-01-30T03:57:19;12.00;;;7.22;;
82292;SDS011;71892;14.836;105.234;2024-01-30T03:59:46;16.00;;;7.38;;
82292;SDS011;71892;14.836;105.234;2024-01-30T04:02:12;13.95;;;8.02;;
82292;SDS011;71892;14.836;105.234;2024-01-30T04:04:39;12.43;;;7.13;;
82292;SDS011;71892;14.836;105.234;2024-01-30T04:07:05;15.45;;;7.07;;
82292;SDS011;71892;14.836;105.234;2024-01-30T04:09:31;15.55;;;7.03;;
82292;SDS011;71892;14.836;105.234;2024-01-30T04:11:58;15.13;;;7.10;;
82292;SDS011;71892;14.836;105.234;2024-01-30T04:14:24;13.73;;;7.57;;
82292;SDS011;71892;14.836;105.234;2024-01-30T04:16:50;10.57;;;6.97;;
82292;SDS011;71892;14.836;105.234;2024-01-30T04:19:17;17.92;;;7.40;;
82292;SDS011;71892;14.836;105.234;2024-01-30T04:21:43;13.32;;;7.10;;
82292;SDS011;71892;14.836;105.234;2024-01-30T04:24:09;10.93;;;6.90;;
82292;SDS011;71892;14.836;105.234;2024-01-30T04:26:36;11.63;;;6.80;;
82292;SDS011;71892;14.836;105.234;2024-01-30T04:29:02;11.55;;;7.13;;
82292;SDS011;71892;14.836;105.234;2024-01-30T04:31:28;11.82;;;7.20;;
82292;SDS011;71892;14.836;105.234;2024-01-30T04:33:54;13.82;;;6.63;;
82292;SDS011;71892;14.836;105.234;2024-01-30T04:36:21;18.55;;;7.97;;
82292;SDS011;71892;14.836;105.234;2024-01-30T04:38:47;21.67;;;7.97;;
82292;SDS011;71892;14.836;105.234;2024-01-30T04:41:13;12.23;;;6.90;;
82292;SDS011;71892;14.836;105.234;2024-01-30T04:43:40;20.17;;;7.80;;
82292;SDS011;71892;14.836;105.234;2024-01-30T04:46:06;13.57;;;7.80;;
82292;SDS011;71892;14.836;105.234;2024-01-30T04:48:32;17.98;;;8.68;;
82292;SDS011;71892;14.836;105.234;2024-01-30T04:50:59;14.95;;;7.07;;
82292;SDS011;71892;14.836;105.234;2024-01-30T04:53:29;19.38;;;9.15;;
82292;SDS011;71892;14.836;105.234;2024-01-30T04:55:56;18.63;;;6.93;;
82292;SDS011;71892;14.836;105.234;2024-01-30T04:58:22;11.48;;;7.28;;
82292;SDS011;71892;14.836;105.234;2024-01-30T05:00:49;13.35;;;7.13;;
82292;SDS011;71892;14.836;105.234;2024-01-30T05:03:18;13.77;;;7.55;;
82292;SDS011;71892;14.836;105.234;2024-01-30T05:05:45;12.77;;;6.95;;
82292;SDS011;71892;14.836;105.234;2024-01-30T05:08:11;11.63;;;7.25;;
82292;SDS011;71892;14.836;105.234;2024-01-30T05:10:38;10.95;;;7.20;;
82292;SDS011;71892;14.836;105.234;2024-01-30T05:13:04;18.02;;;7.68;;
82292;SDS011;71892;14.836;105.234;2024-01-30T05:15:30;12.68;;;7.13;;
82292;SDS011;71892;14.836;105.234;2024-01-30T05:17:56;13.20;;;6.90;;
82292;SDS011;71892;14.836;105.234;2024-01-30T05:20:23;12.27;;;6.80;;
82292;SDS011;71892;14.836;105.234;2024-01-30T05:22:49;12.63;;;6.85;;
82292;SDS011;71892;14.836;105.234;2024-01-30T05:25:15;14.85;;;7.63;;
82292;SDS011;71892;14.836;105.234;2024-01-30T05:27:42;16.70;;;7.18;;
82292;SDS011;71892;14.836;105.234;2024-01-30T05:30:08;14.85;;;8.15;;
82292;SDS011;71892;14.836;105.234;2024-01-30T05:32:35;11.63;;;7.90;;
82292;SDS011;71892;14.836;105.234;2024-01-30T05:35:02;11.55;;;7.30;;
82292;SDS011;71892;14.836;105.234;2024-01-30T05:37:28;12.23;;;7.60;;
82292;SDS011;71892;14.836;105.234;2024-01-30T05:39:57;12.27;;;6.72;;
82292;SDS011;71892;14.836;105.234;2024-01-30T05:42:24;12.23;;;6.97;;
82292;SDS011;71892;14.836;105.234;2024-01-30T05:44:50;15.48;;;8.32;;
82292;SDS011;71892;14.836;105.234;2024-01-30T05:47:16;13.13;;;7.32;;
82292;SDS011;71892;14.836;105.234;2024-01-30T05:49:42;16.55;;;8.23;;
82292;SDS011;71892;14.836;105.234;2024-01-30T05:52:09;17.45;;;7.97;;
82292;SDS011;71892;14.836;105.234;2024-01-30T05:54:35;13.35;;;8.00;;
82292;SDS011;71892;14.836;105.234;2024-01-30T05:57:01;15.13;;;8.32;;
82292;SDS011;71892;14.836;105.234;2024-01-30T05:59:28;13.07;;;7.53;;
82292;SDS011;71892;14.836;105.234;2024-01-30T06:01:54;13.95;;;7.45;;
82292;SDS011;71892;14.836;105.234;2024-01-30T06:04:21;11.30;;;7.50;;
82292;SDS011;71892;14.836;105.234;2024-01-30T06:06:47;14.23;;;8.00;;
82292;SDS011;71892;14.836;105.234;2024-01-30T06:09:13;11.68;;;6.43;;
82292;SDS011;71892;14.836;105.234;2024-01-30T06:11:39;11.15;;;6.80;;
82292;SDS011;71892;14.836;105.234;2024-01-30T06:14:06;10.43;;;6.75;;
82292;SDS011;71892;14.836;105.234;2024-01-30T06:16:32;13.93;;;6.50;;
82292;SDS011;71892;14.836;105.234;2024-01-30T06:18:59;13.45;;;7.35;;
82292;SDS011;71892;14.836;105.234;2024-01-30T06:21:25;13.05;;;7.50;;
82292;SDS011;71892;14.836;105.234;2024-01-30T06:23:51;11.50;;;6.72;;
82292;SDS011;71892;14.836;105.234;2024-01-30T06:26:18;10.80;;;6.95;;
82292;SDS011;71892;14.836;105.234;2024-01-30T06:28:44;12.43;;;6.85;;
82292;SDS011;71892;14.836;105.234;2024-01-30T06:31:10;14.43;;;8.10;;
82292;SDS011;71892;14.836;105.234;2024-01-30T06:33:37;14.43;;;7.00;;
82292;SDS011;71892;14.836;105.234;2024-01-30T06:36:03;11.82;;;6.82;;
82292;SDS011;71892;14.836;105.234;2024-01-30T06:38:29;12.27;;;8.02;;
82292;SDS011;71892;14.836;105.234;2024-01-30T06:40:56;17.35;;;8.48;;
82292;SDS011;71892;14.836;105.234;2024-01-30T06:43:22;16.17;;;7.95;;
82292;SDS011;71892;14.836;105.234;2024-01-30T06:45:48;11.13;;;7.47;;
82292;SDS011;71892;14.836;105.234;2024-01-30T06:48:15;12.73;;;8.18;;
82292;SDS011;71892;14.836;105.234;2024-01-30T06:50:42;19.33;;;10.02;;
82292;SDS011;71892;14.836;105.234;2024-01-30T06:53:08;12.93;;;7.20;;
82292;SDS011;71892;14.836;105.234;2024-01-30T06:55:34;10.82;;;7.25;;
82292;SDS011;71892;14.836;105.234;2024-01-30T06:58:01;15.35;;;7.75;;
82292;SDS011;71892;14.836;105.234;2024-01-30T07:00:27;13.90;;;7.43;;
82292;SDS011;71892;14.836;105.234;2024-01-30T07:02:54;12.85;;;7.00;;
82292;SDS011;71892;14.836;105.234;2024-01-30T07:05:20;11.43;;;7.60;;
82292;SDS011;71892;14.836;105.234;2024-01-30T07:07:47;27.73;;;13.90;;
82292;SDS011;71892;14.836;105.234;2024-01-30T07:10:13;17.40;;;9.55;;
82292;SDS011;71892;14.836;105.234;2024-01-30T07:12:40;14.85;;;8.10;;
82292;SDS011;71892;14.836;105.234;2024-01-30T07:15:09;17.23;;;8.40;;
82292;SDS011;71892;14.836;105.234;2024-01-30T07:17:36;12.75;;;7.30;;
82292;SDS011;71892;14.836;105.234;2024-01-30T07:20:02;17.10;;;7.50;;
82292;SDS011;71892;14.836;105.234;2024-01-30T07:22:30;14.15;;;8.50;;
82292;SDS011;71892;14.836;105.234;2024-01-30T07:24:56;14.48;;;8.45;;
82292;SDS011;71892;14.836;105.234;2024-01-30T07:27:22;11.18;;;7.30;;
82292;SDS011;71892;14.836;105.234;2024-01-30T07:29:49;16.35;;;8.77;;
82292;SDS011;71892;14.836;105.234;2024-01-30T07:32:15;14.70;;;8.38;;
82292;SDS011;71892;14.836;105.234;2024-01-30T07:34:41;21.75;;;9.63;;
82292;SDS011;71892;14.836;105.234;2024-01-30T07:37:07;19.50;;;15.35;;
82292;SDS011;71892;14.836;105.234;2024-01-30T07:39:34;20.75;;;17.15;;
82292;SDS011;71892;14.836;105.234;2024-01-30T07:42:01;20.33;;;10.68;;
82292;SDS011;71892;14.836;105.234;2024-01-30T07:44:27;18.77;;;7.57;;
82292;SDS011;71892;14.836;105.234;2024-01-30T07:46:53;12.75;;;7.22;;
82292;SDS011;71892;14.836;105.234;2024-01-30T07:49:20;11.07;;;7.22;;
82292;SDS011;71892;14.836;105.234;2024-01-30T07:51:46;16.45;;;7.95;;
82292;SDS011;71892;14.836;105.234;2024-01-30T07:54:13;19.13;;;10.68;;
82292;SDS011;71892;14.836;105.234;2024-01-30T07:56:40;13.93;;;7.40;;
82292;SDS011;71892;14.836;105.234;2024-01-30T07:59:10;13.48;;;7.47;;
82292;SDS011;71892;14.836;105.234;2024-01-30T08:01:37;10.00;;;7.00;;
82292;SDS011;71892;14.836;105.234;2024-01-30T08:04:03;11.55;;;7.32;;
82292;SDS011;71892;14.836;105.234;2024-01-30T08:06:30;15.63;;;8.50;;
82292;SDS011;71892;14.836;105.234;2024-01-30T08:08:56;9.90;;;6.57;;
82292;SDS011;71892;14.836;105.234;2024-01-30T08:11:24;25.88;;;9.10;;
82292;SDS011;71892;14.836;105.234;2024-01-30T08:13:55;12.25;;;7.82;;
82292;SDS011;71892;14.836;105.234;2024-01-30T08:16:21;14.30;;;7.82;;
82292;SDS011;71892;14.836;105.234;2024-01-30T08:18:47;15.15;;;8.48;;
82292;SDS011;71892;14.836;105.234;2024-01-30T08:21:14;15.18;;;8.07;;
82292;SDS011;71892;14.836;105.234;2024-01-30T08:23:40;17.08;;;8.40;;
82292;SDS011;71892;14.836;105.234;2024-01-30T08:26:06;15.20;;;7.55;;
82292;SDS011;71892;14.836;105.234;2024-01-30T08:28:33;12.40;;;7.40;;
82292;SDS011;71892;14.836;105.234;2024-01-30T08:30:59;15.60;;;8.85;;
82292;SDS011;71892;14.836;105.234;2024-01-30T08:33:25;11.90;;;7.72;;
82292;SDS011;71892;14.836;105.234;2024-01-30T08:35:52;12.60;;;7.63;;
82292;SDS011;71892;14.836;105.234;2024-01-30T08:38:18;16.02;;;7.68;;
82292;SDS011;71892;14.836;105.234;2024-01-30T08:40:47;21.23;;;8.10;;
82292;SDS011;71892;14.836;105.234;2024-01-30T08:43:13;14.23;;;9.55;;
82292;SDS011;71892;14.836;105.234;2024-01-30T08:45:40;13.00;;;7.43;;
82292;SDS011;71892;14.836;105.234;2024-01-30T08:48:07;20.02;;;8.70;;
82292;SDS011;71892;14.836;105.234;2024-01-30T08:50:33;13.80;;;8.32;;
82292;SDS011;71892;14.836;105.234;2024-01-30T08:53:00;12.23;;;7.35;;
82292;SDS011;71892;14.836;105.234;2024-01-30T08:55:26;16.33;;;7.85;;
82292;SDS011;71892;14.836;105.234;2024-01-30T08:57:53;15.10;;;8.18;;
82292;SDS011;71892;14.836;105.234;2024-01-30T09:00:19;14.15;;;7.95;;
82292;SDS011;71892;14.836;105.234;2024-01-30T09:02:45;14.57;;;7.68;;
82292;SDS011;71892;14.836;105.234;2024-01-30T09:05:12;16.73;;;8.07;;
82292;SDS011;71892;14.836;105.234;2024-01-30T09:07:38;17.65;;;8.48;;
82292;SDS011;71892;14.836;105.234;2024-01-30T09:10:05;20.67;;;8.32;;
82292;SDS011;71892;14.836;105.234;2024-01-30T09:12:31;13.98;;;9.38;;
82292;SDS011;71892;14.836;105.234;2024-01-30T09:14:58;14.52;;;8.60;;
82292;SDS011;71892;14.836;105.234;2024-01-30T09:17:25;16.48;;;9.02;;
82292;SDS011;71892;14.836;105.234;2024-01-30T09:19:51;15.23;;;8.93;;
82292;SDS011;71892;14.836;105.234;2024-01-30T09:22:18;12.30;;;8.27;;
82292;SDS011;71892;14.836;105.234;2024-01-30T09:24:44;15.48;;;8.30;;
82292;SDS011;71892;14.836;105.234;2024-01-30T09:27:10;14.95;;;7.95;;
82292;SDS011;71892;14.836;105.234;2024-01-30T09:29:36;13.13;;;8.05;;
82292;SDS011;71892;14.836;105.234;2024-01-30T09:32:03;13.55;;;8.90;;
82292;SDS011;71892;14.836;105.234;2024-01-30T09:34:31;19.25;;;8.98;;
82292;SDS011;71892;14.836;105.234;2024-01-30T09:37:00;16.45;;;8.05;;
82292;SDS011;71892;14.836;105.234;2024-01-30T09:39:27;17.70;;;7.97;;
82292;SDS011;71892;14.836;105.234;2024-01-30T09:44:57;15.55;;;8.18;;
82292;SDS011;71892;14.836;105.234;2024-01-30T09:47:23;13.70;;;8.63;;
82292;SDS011;71892;14.836;105.234;2024-01-30T09:49:50;15.23;;;8.35;;
82292;SDS011;71892;14.836;105.234;2024-01-30T09:52:17;15.10;;;8.50;;
82292;SDS011;71892;14.836;105.234;2024-01-30T09:54:44;18.65;;;7.65;;
82292;SDS011;71892;14.836;105.234;2024-01-30T09:57:11;14.00;;;8.00;;
82292;SDS011;71892;14.836;105.234;2024-01-30T09:59:37;13.15;;;7.93;;
82292;SDS011;71892;14.836;105.234;2024-01-30T10:04:49;10.88;;;7.85;;
82292;SDS011;71892;14.836;105.234;2024-01-30T10:07:17;14.75;;;8.73;;
82292;SDS011;71892;14.836;105.234;2024-01-30T10:09:44;10.90;;;8.00;;
82292;SDS011;71892;14.836;105.234;2024-01-30T10:12:11;24.27;;;8.85;;
82292;SDS011;71892;14.836;105.234;2024-01-30T10:14:41;18.55;;;9.00;;
82292;SDS011;71892;14.836;105.234;2024-01-30T10:17:11;19.52;;;7.68;;
82292;SDS011;71892;14.836;105.234;2024-01-30T10:19:39;16.40;;;8.50;;
82292;SDS011;71892;14.836;105.234;2024-01-30T10:22:06;14.02;;;8.38;;
82292;SDS011;71892;14.836;105.234;2024-01-30T10:24:33;17.30;;;8.30;;
82292;SDS011;71892;14.836;105.234;2024-01-30T10:27:00;16.02;;;9.07;;
82292;SDS011;71892;14.836;105.234;2024-01-30T10:29:27;17.02;;;8.18;;
82292;SDS011;71892;14.836;105.234;2024-01-30T10:32:03;21.27;;;9.07;;
82292;SDS011;71892;14.836;105.234;2024-01-30T10:34:31;17.50;;;9.18;;
82292;SDS011;71892;14.836;105.234;2024-01-30T10:37:08;15.10;;;8.68;;
82292;SDS011;71892;14.836;105.234;2024-01-30T10:39:42;20.48;;;9.45;;
82292;SDS011;71892;14.836;105.234;2024-01-30T10:42:12;19.95;;;10.35;;
82292;SDS011;71892;14.836;105.234;2024-01-30T10:47:35;18.60;;;8.73;;
82292;SDS011;71892;14.836;105.234;2024-01-30T10:50:02;13.07;;;8.73;;
82292;SDS011;71892;14.836;105.234;2024-01-30T10:52:29;19.15;;;9.13;;
82292;SDS011;71892;14.836;105.234;2024-01-30T10:54:57;97.80;;;14.25;;
82292;SDS011;71892;14.836;105.234;2024-01-30T10:57:25;20.27;;;11.07;;
82292;SDS011;71892;14.836;105.234;2024-01-30T10:59:58;16.75;;;9.80;;
82292;SDS011;71892;14.836;105.234;2024-01-30T11:02:30;28.52;;;10.73;;
82292;SDS011;71892;14.836;105.234;2024-01-30T11:04:59;44.85;;;28.50;;
82292;SDS011;71892;14.836;105.234;2024-01-30T11:07:29;23.42;;;11.98;;
82292;SDS011;71892;14.836;105.234;2024-01-30T11:12:26;26.23;;;11.52;;
82292;SDS011;71892;14.836;105.234;2024-01-30T11:20:10;29.42;;;13.20;;
82292;SDS011;71892;14.836;105.234;2024-01-30T11:22:40;36.85;;;11.60;;
82292;SDS011;71892;14.836;105.234;2024-01-30T11:25:31;24.33;;;11.77;;
82292;SDS011;71892;14.836;105.234;2024-01-30T11:27:58;25.30;;;12.18;;
82292;SDS011;71892;14.836;105.234;2024-01-30T11:35:32;21.98;;;10.93;;
82292;SDS011;71892;14.836;105.234;2024-01-30T11:38:00;24.60;;;11.02;;
82292;SDS011;71892;14.836;105.234;2024-01-30T11:40:28;27.00;;;12.18;;
82292;SDS011;71892;14.836;105.234;2024-01-30T11:42:55;20.08;;;10.90;;
82292;SDS011;71892;14.836;105.234;2024-01-30T11:47:50;24.20;;;11.32;;
82292;SDS011;71892;14.836;105.234;2024-01-30T11:50:18;21.30;;;10.52;;
82292;SDS011;71892;14.836;105.234;2024-01-30T11:52:51;24.35;;;11.18;;
82292;SDS011;71892;14.836;105.234;2024-01-30T11:55:17;27.60;;;12.77;;
82292;SDS011;71892;14.836;105.234;2024-01-30T11:57:45;24.98;;;10.65;;
82292;SDS011;71892;14.836;105.234;2024-01-30T12:00:15;22.15;;;12.30;;
82292;SDS011;71892;14.836;105.234;2024-01-30T12:02:44;22.42;;;14.20;;
82292;SDS011;71892;14.836;105.234;2024-01-30T12:05:15;27.45;;;14.32;;
82292;SDS011;71892;14.836;105.234;2024-01-30T12:07:44;26.10;;;13.82;;
82292;SDS011;71892;14.836;105.234;2024-01-30T12:10:13;33.03;;;14.88;;
82292;SDS011;71892;14.836;105.234;2024-01-30T12:12:44;26.90;;;13.68;;
82292;SDS011;71892;14.836;105.234;2024-01-30T12:15:12;31.73;;;13.55;;
82292;SDS011;71892;14.836;105.234;2024-01-30T12:17:39;35.50;;;14.93;;
82292;SDS011;71892;14.836;105.234;2024-01-30T12:20:10;35.50;;;13.77;;
82292;SDS011;71892;14.836;105.234;2024-01-30T12:22:38;30.48;;;14.40;;
82292;SDS011;71892;14.836;105.234;2024-01-30T12:27:43;28.52;;;13.20;;
82292;SDS011;71892;14.836;105.234;2024-01-30T12:30:17;31.83;;;13.98;;
82292;SDS011;71892;14.836;105.234;2024-01-30T12:32:45;27.05;;;14.70;;
82292;SDS011;71892;14.836;105.234;2024-01-30T12:35:17;29.65;;;14.00;;
82292;SDS011;71892;14.836;105.234;2024-01-30T12:37:45;35.72;;;14.70;;
82292;SDS011;71892;14.836;105.234;2024-01-30T12:40:13;32.55;;;16.05;;
82292;SDS011;71892;14.836;105.234;2024-01-30T12:42:40;33.70;;;15.27;;
82292;SDS011;71892;14.836;105.234;2024-01-30T12:45:16;31.23;;;15.95;;
82292;SDS011;71892;14.836;105.234;2024-01-30T12:47:47;33.03;;;16.48;;
82292;SDS011;71892;14.836;105.234;2024-01-30T12:50:14;39.33;;;17.65;;
82292;SDS011;71892;14.836;105.234;2024-01-30T12:52:42;35.63;;;16.42;;
82292;SDS011;71892;14.836;105.234;2024-01-30T12:55:08;38.03;;;16.27;;
82292;SDS011;71892;14.836;105.234;2024-01-30T12:57:35;40.60;;;17.63;;
82292;SDS011;71892;14.836;105.234;2024-01-30T13:00:01;34.47;;;16.55;;
82292;SDS011;71892;14.836;105.234;2024-01-30T13:02:27;38.10;;;17.77;;
82292;SDS011;71892;14.836;105.234;2024-01-30T13:05:00;34.15;;;16.20;;
82292;SDS011;71892;14.836;105.234;2024-01-30T13:07:26;37.45;;;16.45;;
82292;SDS011;71892;14.836;105.234;2024-01-30T13:09:52;32.22;;;16.85;;
82292;SDS011;71892;14.836;105.234;2024-01-30T13:12:19;36.13;;;16.38;;
82292;SDS011;71892;14.836;105.234;2024-01-30T13:14:45;34.97;;;16.95;;
82292;SDS011;71892;14.836;105.234;2024-01-30T13:17:12;43.22;;;18.33;;
82292;SDS011;71892;14.836;105.234;2024-01-30T13:19:38;36.72;;;19.33;;
82292;SDS011;71892;14.836;105.234;2024-01-30T13:22:04;45.13;;;19.42;;
82292;SDS011;71892;14.836;105.234;2024-01-30T13:24:39;41.78;;;17.98;;
82292;SDS011;71892;14.836;105.234;2024-01-30T13:27:06;37.97;;;18.15;;
82292;SDS011;71892;14.836;105.234;2024-01-30T13:29:32;29.50;;;17.52;;
82292;SDS011;71892;14.836;105.234;2024-01-30T13:31:58;34.13;;;17.38;;
82292;SDS011;71892;14.836;105.234;2024-01-30T13:34:24;31.92;;;17.50;;
82292;SDS011;71892;14.836;105.234;2024-01-30T13:36:51;31.40;;;16.90;;
82292;SDS011;71892;14.836;105.234;2024-01-30T13:39:17;36.05;;;18.42;;
82292;SDS011;71892;14.836;105.234;2024-01-30T13:41:44;32.35;;;18.05;;
82292;SDS011;71892;14.836;105.234;2024-01-30T13:44:10;29.52;;;18.48;;
82292;SDS011;71892;14.836;105.234;2024-01-30T13:46:37;31.15;;;19.75;;
82292;SDS011;71892;14.836;105.234;2024-01-30T13:49:04;36.53;;;17.98;;
82292;SDS011;71892;14.836;105.234;2024-01-30T13:51:31;35.28;;;19.77;;
82292;SDS011;71892;14.836;105.234;2024-01-30T13:53:57;37.15;;;19.27;;
82292;SDS011;71892;14.836;105.234;2024-01-30T13:56:23;31.35;;;18.83;;
82292;SDS011;71892;14.836;105.234;2024-01-30T13:58:51;32.50;;;19.67;;
82292;SDS011;71892;14.836;105.234;2024-01-30T14:01:17;29.73;;;19.98;;
82292;SDS011;71892;14.836;105.234;2024-01-30T14:03:44;34.60;;;19.25;;
82292;SDS011;71892;14.836;105.234;2024-01-30T14:06:11;40.72;;;18.55;;
82292;SDS011;71892;14.836;105.234;2024-01-30T14:08:38;25.27;;;17.15;;
82292;SDS011;71892;14.836;105.234;2024-01-30T14:11:04;24.50;;;17.45;;
82292;SDS011;71892;14.836;105.234;2024-01-30T14:13:30;32.13;;;18.58;;
82292;SDS011;71892;14.836;105.234;2024-01-30T14:15:58;31.27;;;19.15;;
82292;SDS011;71892;14.836;105.234;2024-01-30T14:18:24;30.45;;;18.80;;
82292;SDS011;71892;14.836;105.234;2024-01-30T14:20:51;30.90;;;19.70;;
82292;SDS011;71892;14.836;105.234;2024-01-30T14:23:18;34.30;;;19.92;;
82292;SDS011;71892;14.836;105.234;2024-01-30T14:25:44;35.00;;;19.88;;
82292;SDS011;71892;14.836;105.234;2024-01-30T14:28:13;33.20;;;20.48;;